Time;durP1;ratioP1;P1;durP2;ratioP2;P2;SDS_P1;SDS_P2;PMS_P1;PMS_P2;Temp;Humidity;BMP_temperature;BMP_pressure;BME280_temperature;BME280_humidity;BME280_pressure;Samples;Min_cycle;Max_cycle;Signal;HPM_P1;HPM_P2
2023/07/10 00:00:46;;;;;;;22.63;12.25;;;20.10;99.90;;;;;;5073676;28;20583;-69
2023/07/10 00:03:12;;;;;;;20.08;12.63;;;20.10;99.90;;;;;;5072630;28;20258;-69
2023/07/10 00:05:37;;;;;;;19.65;12.40;;;20.10;99.90;;;;;;5073658;28;20052;-69
2023/07/10 00:08:03;;;;;;;19.67;12.52;;;20.20;99.90;;;;;;5073493;28;20511;-69
2023/07/10 00:10:30;;;;;;;21.38;13.43;;;20.20;99.90;;;;;;5073366;28;20094;-69
2023/07/10 00:12:55;;;;;;;18.38;12.45;;;20.20;99.90;;;;;;5073695;28;20118;-69
2023/07/10 00:15:22;;;;;;;19.08;13.98;;;20.10;99.90;;;;;;5073627;28;20477;-69
2023/07/10 00:17:50;;;;;;;19.67;13.13;;;20.10;99.90;;;;;;5073319;28;20036;-69
2023/07/10 00:20:25;;;;;;;16.65;12.75;;;20.20;99.90;;;;;;5073182;28;20418;-69
2023/07/10 00:22:51;;;;;;;17.40;11.75;;;20.10;99.90;;;;;;5074532;28;20036;-69
2023/07/10 00:25:18;;;;;;;15.50;12.20;;;20.10;99.90;;;;;;5073436;28;20452;-69
2023/07/10 00:27:45;;;;;;;19.27;12.80;;;20.20;99.90;;;;;;5073036;28;20070;-69
2023/07/10 00:30:20;;;;;;;21.25;13.30;;;20.10;99.90;;;;;;5072978;28;20548;-69
2023/07/10 00:32:47;;;;;;;20.42;13.10;;;20.10;99.90;;;;;;5073066;28;20041;-69
2023/07/10 00:35:16;;;;;;;25.73;12.80;;;20.10;99.90;;;;;;5072945;28;20048;-69
2023/07/10 00:37:47;;;;;;;18.85;14.27;;;20.10;99.90;;;;;;5072849;28;20456;-69
2023/07/10 00:40:22;;;;;;;19.65;13.25;;;20.10;99.90;;;;;;5073169;28;20117;-69
2023/07/10 00:42:57;;;;;;;18.90;13.93;;;20.10;99.90;;;;;;5072834;28;20462;-69
2023/07/10 00:45:23;;;;;;;18.08;13.93;;;20.10;99.90;;;;;;5073040;28;20488;-69
2023/07/10 00:48:04;;;;;;;23.35;13.75;;;20.10;99.90;;;;;;5055992;28;20048;-69
2023/07/10 00:50:36;;;;;;;18.88;13.20;;;20.10;99.90;;;;;;5072652;28;20040;-69
2023/07/10 00:53:05;;;;;;;22.70;13.88;;;20.10;99.90;;;;;;5072676;28;20068;-69
2023/07/10 00:55:37;;;;;;;21.33;13.60;;;20.10;99.90;;;;;;5072577;28;20120;-69
2023/07/10 00:58:15;;;;;;;22.58;15.05;;;20.10;99.90;;;;;;5073768;28;20040;-69
2023/07/10 01:01:08;;;;;;;20.63;14.77;;;20.10;99.90;;;;;;5072513;28;20048;-69
2023/07/10 01:03:34;;;;;;;;;;;20.20;99.90;;;;;;5072874;28;20048;-69
2023/07/10 01:06:12;;;;;;;21.67;16.80;;;20.00;99.90;;;;;;5072212;28;20338;-69
2023/07/10 01:08:41;;;;;;;19.20;14.88;;;20.00;99.90;;;;;;5072566;28;20079;-69
2023/07/10 01:11:07;;;;;;;23.15;15.90;;;20.00;99.90;;;;;;5072291;28;20040;-69
2023/07/10 01:13:34;;;;;;;21.83;15.18;;;20.10;99.90;;;;;;5072240;28;20457;-69
2023/07/10 01:16:00;;;;;;;21.63;16.30;;;20.10;99.90;;;;;;5072312;28;20037;-69
2023/07/10 01:18:26;;;;;;;21.67;15.35;;;20.10;99.90;;;;;;5072124;28;20154;-69
2023/07/10 01:21:30;;;;;;;19.25;14.40;;;20.10;99.90;;;;;;5072161;28;20045;-69
2023/07/10 01:23:59;;;;;;;18.52;14.63;;;20.10;99.90;;;;;;5072095;28;20048;-69
2023/07/10 01:26:25;;;;;;;21.98;16.88;;;20.10;99.90;;;;;;5072337;28;20052;-69
2023/07/10 01:28:53;;;;;;;26.33;18.92;;;20.10;99.90;;;;;;5072034;28;20053;-69
2023/07/10 01:31:20;;;;;;;27.95;18.63;;;20.10;99.90;;;;;;5071995;28;20536;-69
2023/07/10 01:33:56;;;;;;;28.13;18.10;;;20.00;99.90;;;;;;5071954;28;20550;-69
2023/07/10 01:36:29;;;;;;;28.25;18.50;;;20.00;99.90;;;;;;5071955;28;20409;-69
2023/07/10 01:39:22;;;;;;;27.02;18.20;;;20.10;99.90;;;;;;5071801;28;20454;-69
2023/07/10 01:41:48;;;;;;;25.00;19.33;;;20.10;99.90;;;;;;5072113;28;20040;-69
2023/07/10 01:44:22;;;;;;;24.15;17.85;;;20.00;99.90;;;;;;5071877;28;20036;-69
2023/07/10 01:46:49;;;;;;;28.17;18.52;;;20.00;99.90;;;;;;5071826;28;20044;-69
2023/07/10 01:49:17;;;;;;;26.10;18.67;;;20.00;99.90;;;;;;5072042;28;20166;-69
2023/07/10 01:51:44;;;;;;;24.95;18.80;;;20.00;99.90;;;;;;5071802;28;20127;-69
2023/07/10 01:54:16;;;;;;;31.17;20.25;;;20.00;99.90;;;;;;5071807;28;20090;-69
2023/07/10 01:56:42;;;;;;;31.48;21.23;;;19.90;99.90;;;;;;5071791;28;20047;-69
2023/07/10 01:59:08;;;;;;;24.73;18.63;;;19.90;99.90;;;;;;5071665;28;20052;-69
2023/07/10 02:01:34;;;;;;;26.35;18.17;;;19.90;99.90;;;;;;5071722;28;20040;-69
2023/07/10 02:03:59;;;;;;;27.05;19.02;;;19.90;99.90;;;;;;5071704;28;20049;-69
2023/07/10 02:06:26;;;;;;;26.50;17.90;;;19.90;99.90;;;;;;5071614;28;20043;-69
2023/07/10 02:08:52;;;;;;;27.02;17.65;;;19.90;99.90;;;;;;5071557;28;20493;-69
2023/07/10 02:11:18;;;;;;;23.60;17.08;;;19.80;99.90;;;;;;5071558;28;20098;-69
2023/07/10 02:13:43;;;;;;;27.65;19.65;;;19.90;99.90;;;;;;5071580;28;20116;-69
2023/07/10 02:16:12;;;;;;;24.02;19.63;;;19.80;99.90;;;;;;5071583;28;20070;-69
2023/07/10 02:18:37;;;;;;;26.33;18.13;;;19.70;99.90;;;;;;5071474;28;20555;-69
2023/07/10 02:21:03;;;;;;;25.13;18.20;;;19.80;99.90;;;;;;5071541;28;20052;-69
2023/07/10 02:23:30;;;;;;;24.27;18.40;;;19.80;99.90;;;;;;5071536;28;20036;-69
2023/07/10 02:25:56;;;;;;;25.70;18.63;;;19.80;99.90;;;;;;5071780;28;20049;-69
2023/07/10 02:28:22;;;;;;;28.38;19.95;;;19.70;99.90;;;;;;5075364;28;20489;-69
2023/07/10 02:30:48;;;;;;;24.38;17.25;;;19.70;99.90;;;;;;5076538;28;20068;-69
2023/07/10 02:33:14;;;;;;;25.25;18.67;;;19.70;99.90;;;;;;5075568;28;20037;-69
2023/07/10 02:35:40;;;;;;;25.80;18.13;;;19.70;99.90;;;;;;5058542;28;20044;-69
2023/07/10 02:38:07;;;;;;;25.52;18.55;;;19.70;99.90;;;;;;5075595;28;20045;-69
2023/07/10 02:40:32;;;;;;;28.13;18.65;;;19.60;99.90;;;;;;5075134;28;20613;-69
2023/07/10 02:42:58;;;;;;;27.40;18.63;;;19.60;99.90;;;;;;5075383;28;20048;-69
2023/07/10 02:45:24;;;;;;;27.00;19.23;;;19.70;99.90;;;;;;5075292;28;20400;-69
2023/07/10 02:47:50;;;;;;;26.42;19.02;;;19.60;99.90;;;;;;5074940;28;20052;-69
2023/07/10 02:50:16;;;;;;;26.67;18.73;;;19.70;99.90;;;;;;5074839;28;20050;-69
2023/07/10 02:52:41;;;;;;;23.20;17.80;;;19.60;99.90;;;;;;5074883;28;20060;-69
2023/07/10 02:55:07;;;;;;;24.95;17.77;;;19.60;99.90;;;;;;5074895;28;20039;-69
2023/07/10 02:57:33;;;;;;;27.58;19.10;;;19.50;99.90;;;;;;5074775;28;20117;-69
2023/07/10 02:59:59;;;;;;;25.73;18.33;;;19.60;99.90;;;;;;5075030;28;20043;-69
2023/07/10 03:02:24;;;;;;;26.75;18.08;;;19.50;99.90;;;;;;5074723;28;20440;-69
2023/07/10 03:04:50;;;;;;;24.65;18.20;;;19.50;99.90;;;;;;5074759;28;20037;-69
2023/07/10 03:07:15;;;;;;;21.88;18.38;;;19.40;99.90;;;;;;5074429;28;20098;-69
2023/07/10 03:09:41;;;;;;;29.33;19.15;;;19.40;99.90;;;;;;5074555;28;20048;-69
2023/07/10 03:12:07;;;;;;;28.77;19.50;;;19.50;99.90;;;;;;5074572;28;20049;-69
2023/07/10 03:14:33;;;;;;;28.52;20.63;;;19.40;99.90;;;;;;5074790;28;20041;-69
2023/07/10 03:16:59;;;;;;;25.33;20.05;;;19.40;99.90;;;;;;5074441;28;20041;-69
2023/07/10 03:19:28;;;;;;;25.15;20.23;;;19.40;99.90;;;;;;5074688;28;20115;-69
2023/07/10 03:21:54;;;;;;;28.42;21.75;;;19.40;99.90;;;;;;5057754;28;20040;-69
2023/07/10 03:24:20;;;;;;;30.95;23.00;;;19.40;99.90;;;;;;5074389;28;20044;-69
2023/07/10 03:26:47;;;;;;;28.27;21.90;;;19.30;99.90;;;;;;5074516;28;20040;-69
2023/07/10 03:29:14;;;;;;;26.95;22.02;;;19.40;99.90;;;;;;5074464;28;20141;-69
2023/07/10 03:31:41;;;;;;;25.92;20.10;;;19.30;99.90;;;;;;5074153;28;20032;-69
2023/07/10 03:34:07;;;;;;;28.08;20.00;;;19.30;99.90;;;;;;5074160;28;20043;-69
2023/07/10 03:36:33;;;;;;;22.73;18.85;;;19.40;99.90;;;;;;5057417;28;20089;-69
2023/07/10 03:38:59;;;;;;;23.63;18.13;;;19.30;99.90;;;;;;5074241;28;20032;-69
2023/07/10 03:41:26;;;;;;;22.75;17.27;;;19.30;99.90;;;;;;5074106;28;20045;-69
2023/07/10 03:43:52;;;;;;;20.02;17.00;;;19.20;99.90;;;;;;5074296;28;20044;-69
2023/07/10 03:46:18;;;;;;;25.02;17.65;;;19.30;99.90;;;;;;5073995;28;20548;-69
2023/07/10 03:48:44;;;;;;;19.20;15.45;;;19.30;99.90;;;;;;5074129;28;20048;-69
2023/07/10 03:51:10;;;;;;;22.55;16.58;;;19.20;99.90;;;;;;5073813;28;20123;-69
2023/07/10 03:53:36;;;;;;;24.23;15.82;;;19.20;99.90;;;;;;5074099;28;20517;-69
2023/07/10 03:56:02;;;;;;;20.77;15.48;;;19.20;99.90;;;;;;5073796;28;20044;-69
2023/07/10 03:58:30;;;;;;;17.92;14.77;;;19.20;99.90;;;;;;5073688;28;20047;-69
2023/07/10 04:00:57;;;;;;;16.20;13.85;;;19.20;99.90;;;;;;5073706;28;20040;-69
2023/07/10 04:03:28;;;;;;;21.50;15.38;;;19.10;99.90;;;;;;5073649;28;20098;-69
2023/07/10 04:05:56;;;;;;;16.95;13.98;;;19.20;99.90;;;;;;5073544;28;20036;-69
2023/07/10 04:08:24;;;;;;;19.60;14.73;;;19.20;99.90;;;;;;5073440;28;20036;-69
2023/07/10 04:10:52;;;;;;;19.30;15.10;;;19.10;99.90;;;;;;5073544;28;20408;-69
2023/07/10 04:13:18;;;;;;;20.23;16.90;;;19.20;99.90;;;;;;5073435;28;20052;-69
2023/07/10 04:16:04;;;;;;;17.77;15.43;;;19.20;99.90;;;;;;5073655;28;20044;-69
2023/07/10 04:18:35;;;;;;;18.73;14.88;;;19.20;99.90;;;;;;5073560;28;20051;-69
2023/07/10 04:21:03;;;;;;;19.05;14.02;;;19.20;99.90;;;;;;5073585;28;20051;-69
2023/07/10 04:23:29;;;;;;;19.20;14.77;;;19.10;99.90;;;;;;5074221;28;20040;-69
2023/07/10 04:25:55;;;;;;;19.98;13.85;;;19.20;99.90;;;;;;5073471;28;20507;-69
2023/07/10 04:28:21;;;;;;;17.45;14.80;;;19.20;99.90;;;;;;5073081;28;20041;-69
2023/07/10 04:30:47;;;;;;;18.48;12.75;;;19.20;99.90;;;;;;5073109;28;20051;-69
2023/07/10 04:33:15;;;;;;;18.33;13.82;;;19.20;99.90;;;;;;5072982;28;20435;-69
2023/07/10 04:35:41;;;;;;;19.42;14.35;;;19.20;99.90;;;;;;5072991;28;20080;-69
2023/07/10 04:38:07;;;;;;;21.60;15.20;;;19.20;99.90;;;;;;5072836;28;20154;-69
2023/07/10 04:40:33;;;;;;;21.65;15.07;;;19.20;99.90;;;;;;5072840;28;20051;-69
2023/07/10 04:43:01;;;;;;;18.35;13.48;;;19.30;99.90;;;;;;5073069;28;20488;-69
2023/07/10 04:45:27;;;;;;;18.30;13.68;;;19.30;99.90;;;;;;5073085;28;20036;-69
2023/07/10 04:47:52;;;;;;;15.05;12.60;;;19.30;99.90;;;;;;5072689;28;20110;-69
2023/07/10 04:50:18;;;;;;;20.80;14.82;;;19.30;99.90;;;;;;5072370;28;20033;-69
2023/07/10 04:52:43;;;;;;;20.58;13.52;;;19.40;99.90;;;;;;5072651;28;20409;-69
2023/07/10 04:55:09;;;;;;;18.42;14.43;;;19.30;99.90;;;;;;5072633;28;20036;-69
2023/07/10 04:57:35;;;;;;;20.00;14.50;;;19.30;99.90;;;;;;5072780;28;20072;-69
2023/07/10 05:00:00;;;;;;;15.40;13.77;;;19.30;99.90;;;;;;5072512;28;20440;-69
2023/07/10 05:02:26;;;;;;;22.95;15.93;;;19.30;99.90;;;;;;5072503;28;20127;-69
2023/07/10 05:04:51;;;;;;;17.73;13.73;;;19.40;99.90;;;;;;5072336;28;20109;-69
2023/07/10 05:07:17;;;;;;;16.35;13.50;;;19.40;99.90;;;;;;5072107;28;20052;-69
2023/07/10 05:09:42;;;;;;;18.92;12.70;;;19.40;99.90;;;;;;5072433;28;20048;-69
2023/07/10 05:12:08;;;;;;;18.13;11.20;;;19.40;99.90;;;;;;5072256;28;20501;-69
2023/07/10 05:14:34;;;;;;;13.25;8.88;;;19.40;99.90;;;;;;5072264;28;20063;-69
2023/07/10 05:16:59;;;;;;;12.60;9.75;;;19.40;99.90;;;;;;5055521;28;20029;-69
2023/07/10 05:19:25;;;;;;;11.07;7.60;;;19.40;99.90;;;;;;5072453;28;20075;-69
2023/07/10 05:21:51;;;;;;;11.55;7.35;;;19.40;99.90;;;;;;5072454;28;20374;-69
2023/07/10 05:24:16;;;;;;;9.75;6.60;;;19.30;99.90;;;;;;5072109;28;20519;-69
2023/07/10 05:26:42;;;;;;;10.70;5.93;;;19.30;99.90;;;;;;5072376;28;20047;-69
2023/07/10 05:29:08;;;;;;;9.27;5.40;;;19.30;99.90;;;;;;5072032;28;20508;-69
2023/07/10 05:31:34;;;;;;;8.68;4.68;;;19.30;99.90;;;;;;5071944;28;20044;-69
2023/07/10 05:33:59;;;;;;;10.02;5.35;;;19.40;99.90;;;;;;5072014;28;20131;-69
2023/07/10 05:36:25;;;;;;;7.20;4.50;;;19.40;99.90;;;;;;5071974;28;20075;-69
2023/07/10 05:38:52;;;;;;;8.32;4.50;;;19.40;99.90;;;;;;5071911;28;20041;-69
2023/07/10 05:41:19;;;;;;;8.95;5.30;;;19.40;99.90;;;;;;5071948;28;20116;-69
2023/07/10 05:43:45;;;;;;;8.20;4.65;;;19.50;99.90;;;;;;5071929;28;20045;-69
2023/07/10 05:46:11;;;;;;;9.07;4.00;;;19.50;99.90;;;;;;5071886;28;20036;-69
2023/07/10 05:48:37;;;;;;;8.57;3.95;;;19.50;99.90;;;;;;5072042;28;20517;-69
2023/07/10 05:51:03;;;;;;;9.20;3.60;;;19.50;99.90;;;;;;5072093;28;20083;-69
2023/07/10 05:53:29;;;;;;;6.55;3.28;;;19.50;99.90;;;;;;5056135;28;20079;-69
2023/07/10 05:55:56;;;;;;;8.73;3.70;;;19.50;99.90;;;;;;5071802;28;20068;-69
2023/07/10 05:58:27;;;;;;;8.63;3.38;;;19.60;99.90;;;;;;5071668;28;20036;-70
2023/07/10 06:00:56;;;;;;;6.18;2.90;;;19.60;99.90;;;;;;5071791;28;20049;-69
2023/07/10 06:03:23;;;;;;;7.38;2.70;;;19.60;99.90;;;;;;5075950;28;20127;-69
2023/07/10 06:05:53;;;;;;;7.07;2.72;;;19.60;99.90;;;;;;5075913;28;20076;-69
2023/07/10 06:08:19;;;;;;;9.32;3.33;;;19.50;99.90;;;;;;5076021;28;20099;-69
2023/07/10 06:10:45;;;;;;;12.20;3.63;;;19.50;99.90;;;;;;5075831;28;20552;-69
2023/07/10 06:13:11;;;;;;;9.18;3.30;;;19.50;99.90;;;;;;5075791;28;20094;-69
2023/07/10 06:15:41;;;;;;;8.57;3.00;;;19.50;99.90;;;;;;5075687;28;20040;-69
2023/07/10 06:18:07;;;;;;;8.93;2.65;;;19.60;99.90;;;;;;5075628;28;20515;-69
2023/07/10 06:20:32;;;;;;;6.90;2.80;;;19.60;99.90;;;;;;5075680;28;20040;-69
2023/07/10 06:22:58;;;;;;;6.45;2.40;;;19.70;99.90;;;;;;5075582;28;20041;-69
2023/07/10 06:25:23;;;;;;;6.80;2.60;;;19.60;99.90;;;;;;5075876;28;20105;-69
2023/07/10 06:27:49;;;;;;;7.03;2.50;;;19.70;99.90;;;;;;5075362;28;20413;-70
2023/07/10 06:30:15;;;;;;;9.80;2.47;;;19.80;99.90;;;;;;5075377;28;20040;-70
2023/07/10 06:32:41;;;;;;;11.45;2.67;;;19.90;99.90;;;;;;5075353;28;20037;-70
2023/07/10 06:35:07;;;;;;;7.00;2.08;;;19.80;99.90;;;;;;5075307;28;20048;-69
2023/07/10 06:37:33;;;;;;;8.13;2.28;;;19.90;99.90;;;;;;5075189;28;20047;-70
2023/07/10 06:40:13;;;;;;;7.60;2.38;;;19.90;99.90;;;;;;5075635;28;20040;-70
2023/07/10 06:42:40;;;;;;;6.63;2.10;;;20.00;99.90;;;;;;5075456;28;20090;-70
2023/07/10 06:45:06;;;;;;;7.22;2.38;;;19.90;99.90;;;;;;5058704;28;20047;-69
2023/07/10 06:47:33;;;;;;;5.43;2.35;;;20.00;99.90;;;;;;5075261;28;20131;-70
2023/07/10 06:49:59;;;;;;;8.48;2.28;;;19.90;99.90;;;;;;5074960;28;20037;-70
2023/07/10 06:52:25;;;;;;;8.48;2.50;;;19.90;99.90;;;;;;5074824;28;20036;-70
2023/07/10 06:54:52;;;;;;;9.82;2.42;;;20.00;99.90;;;;;;5074787;28;20036;-70
2023/07/10 06:57:18;;;;;;;7.57;2.17;;;20.10;99.90;;;;;;5074785;28;20076;-69
2023/07/10 06:59:44;;;;;;;10.75;3.15;;;20.20;99.90;;;;;;5074838;28;20048;-70
2023/07/10 07:02:12;;;;;;;9.07;2.45;;;20.30;99.90;;;;;;5074782;28;20036;-69
2023/07/10 07:04:38;;;;;;;7.70;2.08;;;20.30;99.90;;;;;;5076224;28;20041;-69
2023/07/10 07:07:04;;;;;;;7.65;2.10;;;20.40;99.90;;;;;;5074522;28;20048;-70
2023/07/10 07:09:29;;;;;;;8.82;2.22;;;20.40;99.90;;;;;;5074640;28;20124;-70
2023/07/10 07:11:55;;;;;;;6.90;2.13;;;20.50;99.90;;;;;;5074301;28;20115;-69
2023/07/10 07:14:21;;;;;;;7.03;2.05;;;20.60;99.90;;;;;;5058068;28;20508;-69
2023/07/10 07:16:46;;;;;;;9.02;2.30;;;20.60;99.90;;;;;;5074602;28;20071;-69
2023/07/10 07:19:12;;;;;;;9.15;2.78;;;20.70;99.90;;;;;;5074611;28;20128;-69
2023/07/10 07:21:37;;;;;;;7.63;2.25;;;20.80;99.90;;;;;;5074416;28;20044;-69
2023/07/10 07:24:03;;;;;;;6.28;2.47;;;20.90;99.90;;;;;;5074375;28;20051;-69
2023/07/10 07:26:29;;;;;;;7.30;2.35;;;20.90;99.90;;;;;;5057607;28;20037;-69
2023/07/10 07:28:54;;;;;;;9.60;2.30;;;21.00;99.90;;;;;;5074232;28;20047;-70
2023/07/10 07:31:20;;;;;;;8.48;2.38;;;21.10;99.90;;;;;;5074217;28;20120;-70
2023/07/10 07:33:47;;;;;;;8.65;2.13;;;21.20;99.90;;;;;;5074246;28;20044;-70
2023/07/10 07:36:13;;;;;;;6.85;1.90;;;21.20;99.90;;;;;;5074197;28;20496;-69
2023/07/10 07:38:38;;;;;;;12.30;2.25;;;21.20;99.90;;;;;;5074096;28;20075;-69
2023/07/10 07:41:06;;;;;;;7.57;2.10;;;21.30;99.90;;;;;;5074116;28;20038;-69
2023/07/10 07:43:33;;;;;;;5.85;2.08;;;21.40;99.90;;;;;;5074055;28;20048;-69
2023/07/10 07:45:59;;;;;;;7.03;1.70;;;21.50;99.90;;;;;;5074170;28;20489;-69
2023/07/10 07:48:25;;;;;;;6.57;2.15;;;21.60;99.90;;;;;;5073845;28;20048;-69
2023/07/10 07:51:09;;;;;;;7.45;1.70;;;21.70;99.90;;;;;;5073927;28;20043;-69
2023/07/10 07:53:38;;;;;;;5.90;2.00;;;21.80;99.90;;;;;;5075504;28;20063;-69
2023/07/10 07:56:04;;;;;;;8.60;2.03;;;21.90;99.90;;;;;;5074039;28;20532;-69
2023/07/10 07:58:30;;;;;;;11.70;1.95;;;21.90;99.90;;;;;;5073714;28;20076;-69
2023/07/10 08:00:55;;;;;;;9.88;2.30;;;22.00;99.90;;;;;;5073744;28;20051;-69
2023/07/10 08:03:24;;;;;;;8.95;2.58;;;22.10;99.90;;;;;;5073959;28;20068;-69
2023/07/10 08:05:49;;;;;;;9.65;2.40;;;22.20;99.90;;;;;;5056822;28;20131;-69
2023/07/10 08:08:15;;;;;;;9.57;2.17;;;22.30;99.90;;;;;;5073527;28;20128;-69
2023/07/10 08:10:44;;;;;;;9.27;2.22;;;22.40;99.90;;;;;;5073408;28;20040;-69
2023/07/10 08:13:11;;;;;;;9.32;2.42;;;22.50;99.90;;;;;;5073694;28;20090;-69
2023/07/10 08:15:38;;;;;;;10.65;2.88;;;22.60;99.90;;;;;;5056936;28;20036;-69
2023/07/10 08:18:04;;;;;;;10.60;2.47;;;22.60;99.90;;;;;;5073333;28;20029;-69
2023/07/10 08:20:30;;;;;;;8.55;2.00;;;22.70;99.90;;;;;;5040345;28;20089;-70
2023/07/10 08:22:56;;;;;;;9.57;2.20;;;22.80;99.90;;;;;;5073249;28;20040;-69
2023/07/10 08:25:23;;;;;;;11.93;2.38;;;23.00;99.90;;;;;;5072397;28;20417;-69
2023/07/10 08:27:49;;;;;;;9.05;2.75;;;23.10;99.90;;;;;;5056262;28;20047;-69
2023/07/10 08:30:16;;;;;;;10.60;2.65;;;23.30;99.90;;;;;;5056498;28;20131;-69
2023/07/10 08:32:42;;;;;;;7.20;1.73;;;23.30;98.90;;;;;;5073105;28;20098;-69
2023/07/10 08:35:22;;;;;;;9.15;2.30;;;23.30;98.70;;;;;;5056355;28;20033;-69
2023/07/10 08:37:49;;;;;;;14.55;2.25;;;23.30;97.80;;;;;;5073186;28;20058;-69
2023/07/10 08:40:43;;;;;;;10.80;2.28;;;23.40;98.20;;;;;;5072799;28;20106;-69
2023/07/10 08:43:38;;;;;;;7.25;1.98;;;23.60;96.50;;;;;;5073149;28;20041;-69
2023/07/10 08:46:10;;;;;;;9.68;2.08;;;23.70;96.20;;;;;;5069766;28;20160;-70
2023/07/10 08:48:57;;;;;;;9.57;2.40;;;23.90;96.20;;;;;;5072721;28;20123;-70
2023/07/10 08:52:05;;;;;;;7.38;1.90;;;24.00;95.50;;;;;;5072470;28;20501;-69
2023/07/10 08:54:30;;;;;;;7.45;2.13;;;23.80;94.10;;;;;;5055975;28;20082;-69
2023/07/10 08:57:45;;;;;;;8.25;2.10;;;23.80;94.50;;;;;;5072469;28;20071;-70
2023/07/10 09:00:16;;;;;;;9.30;2.42;;;24.00;93.60;;;;;;5070321;28;20052;-69
2023/07/10 09:03:04;;;;;;;11.20;2.40;;;24.00;93.70;;;;;;5056125;28;20576;-69
2023/07/10 09:05:32;;;;;;;7.65;2.15;;;24.00;92.10;;;;;;5073495;28;20127;-69
2023/07/10 09:08:05;;;;;;;7.10;1.90;;;24.10;93.40;;;;;;5072415;28;20062;-69
2023/07/10 09:10:55;;;;;;;10.68;2.20;;;24.20;92.90;;;;;;5072681;28;20033;-69
2023/07/10 09:13:28;;;;;;;10.30;1.90;;;24.20;92.50;;;;;;5073414;28;20101;-69
2023/07/10 09:15:57;;;;;;;11.95;2.45;;;24.30;91.70;;;;;;5072691;28;20127;-70
2023/07/10 09:18:35;;;;;;;10.40;2.30;;;24.30;91.70;;;;;;5055490;28;20075;-69
2023/07/10 09:21:14;;;;;;;11.05;2.50;;;24.30;91.50;;;;;;5072189;28;20413;-69
2023/07/10 09:23:39;;;;;;;9.43;2.30;;;24.20;91.10;;;;;;5072197;28;20389;-69
2023/07/10 09:26:12;;;;;;;10.63;2.38;;;24.20;90.60;;;;;;5072375;28;20128;-69
2023/07/10 09:28:44;;;;;;;10.32;2.20;;;24.30;91.10;;;;;;5072067;28;20082;-69
2023/07/10 09:31:15;;;;;;;8.35;2.35;;;24.50;91.90;;;;;;5069667;28;20071;-69
2023/07/10 09:33:45;;;;;;;9.07;2.10;;;24.70;91.80;;;;;;5072378;28;20466;-69
2023/07/10 09:36:20;;;;;;;11.63;2.38;;;24.80;90.80;;;;;;5072174;28;20151;-69
2023/07/10 09:38:47;;;;;;;8.95;2.78;;;24.90;90.20;;;;;;5071721;28;20124;-69
2023/07/10 09:41:36;;;;;;;8.80;2.25;;;24.80;89.40;;;;;;5072261;28;20040;-69
2023/07/10 09:44:15;;;;;;;10.05;2.90;;;24.60;88.90;;;;;;5055698;28;20048;-69
2023/07/10 09:46:41;;;;;;;7.03;2.50;;;24.50;89.00;;;;;;5055464;28;20150;-69
2023/07/10 09:49:32;;;;;;;10.50;2.65;;;24.60;90.50;;;;;;5073051;28;20111;-69
2023/07/10 09:52:02;;;;;;;13.68;2.42;;;24.80;89.10;;;;;;5070739;28;20066;-69
2023/07/10 09:54:40;;;;;;;9.88;2.25;;;24.60;88.70;;;;;;5038460;28;20090;-69
2023/07/10 09:57:19;;;;;;;7.63;2.10;;;24.30;85.90;;;;;;5071693;28;20086;-69
2023/07/10 09:59:53;;;;;;;7.07;2.17;;;24.30;88.10;;;;;;5055262;28;20049;-69
2023/07/10 10:02:27;;;;;;;10.57;2.80;;;24.50;88.60;;;;;;5071819;28;20033;-69
2023/07/10 10:05:14;;;;;;;10.35;2.20;;;24.50;86.70;;;;;;5054918;28;20052;-69
2023/07/10 10:07:44;;;;;;;10.15;2.22;;;24.80;88.50;;;;;;5071955;28;20491;-69
2023/07/10 10:10:26;;;;;;;9.82;1.95;;;24.70;85.80;;;;;;5071586;28;20539;-69
2023/07/10 10:13:04;;;;;;;11.38;2.35;;;24.50;84.70;;;;;;5071729;28;20501;-69
2023/07/10 10:15:35;;;;;;;5.95;2.15;;;24.40;85.60;;;;;;5071996;28;20162;-69
2023/07/10 10:18:05;;;;;;;10.18;2.55;;;24.60;85.60;;;;;;5071546;28;20041;-69
2023/07/10 10:20:41;;;;;;;7.55;1.98;;;24.70;84.20;;;;;;5071208;28;20053;-69
2023/07/10 10:23:31;;;;;;;9.32;2.20;;;24.80;83.70;;;;;;5071575;28;20045;-69
2023/07/10 10:26:09;;;;;;;8.95;1.98;;;25.20;83.20;;;;;;5071795;28;20044;-69
2023/07/10 10:28:46;;;;;;;12.40;2.60;;;25.50;84.40;;;;;;5071389;28;20420;-69
2023/07/10 10:31:18;;;;;;;10.65;2.20;;;25.80;81.00;;;;;;5071434;28;20049;-70
2023/07/10 10:34:22;;;;;;;11.45;2.30;;;26.00;79.70;;;;;;5071669;28;20051;-69
2023/07/10 10:37:19;;;;;;;11.20;2.17;;;26.20;79.90;;;;;;5071678;28;20554;-69
2023/07/10 10:40:32;;;;;;;8.38;2.15;;;26.10;80.00;;;;;;5071365;28;20037;-69
2023/07/10 10:43:22;;;;;;;7.05;1.95;;;26.40;79.10;;;;;;5058538;28;20457;-69
2023/07/10 10:46:17;;;;;;;9.43;2.17;;;26.30;77.50;;;;;;5054808;28;20105;-69
2023/07/10 10:49:12;;;;;;;8.52;2.25;;;25.90;76.50;;;;;;5074240;28;20485;-70
2023/07/10 10:52:01;;;;;;;8.95;2.00;;;26.00;76.30;;;;;;5068170;28;20052;-69
2023/07/10 10:55:07;;;;;;;9.85;2.20;;;26.30;76.30;;;;;;5076121;28;20040;-69
2023/07/10 10:57:46;;;;;;;9.13;2.20;;;26.70;77.80;;;;;;5075111;28;20405;-69
2023/07/10 11:00:27;;;;;;;8.77;2.40;;;27.10;74.10;;;;;;5074841;28;20097;-69
2023/07/10 11:03:17;;;;;;;8.93;2.55;;;26.90;72.70;;;;;;5075146;28;20466;-69
2023/07/10 11:05:52;;;;;;;7.90;1.95;;;27.00;71.20;;;;;;5074422;28;20131;-69
2023/07/10 11:08:30;;;;;;;10.55;2.20;;;27.00;72.70;;;;;;5074947;28;20048;-70
2023/07/10 11:10:57;;;;;;;11.80;2.67;;;27.20;71.40;;;;;;5074642;28;20048;-69
2023/07/10 11:13:37;;;;;;;5.57;1.73;;;27.30;71.50;;;;;;5074647;28;20115;-69
2023/07/10 11:16:06;;;;;;;9.07;2.17;;;27.40;67.60;;;;;;5074862;28;20040;-69
2023/07/10 11:18:33;;;;;;;9.13;2.28;;;27.40;67.90;;;;;;5058105;28;20435;-69
2023/07/10 11:21:01;;;;;;;7.22;1.58;;;27.30;68.30;;;;;;5074548;28;20119;-69
2023/07/10 11:23:40;;;;;;;7.40;1.95;;;26.90;66.50;;;;;;5075016;28;20048;-69
2023/07/10 11:26:13;;;;;;;9.32;2.45;;;26.60;66.10;;;;;;5074673;28;20091;-72
2023/07/10 11:28:59;;;;;;;10.52;2.05;;;26.30;66.00;;;;;;5074476;28;20075;-72
2023/07/10 11:31:31;;;;;;;7.65;2.00;;;26.10;67.20;;;;;;5074308;28;20048;-72
2023/07/10 11:34:05;;;;;;;8.23;1.80;;;25.90;69.50;;;;;;5074241;28;20131;-72
2023/07/10 11:36:38;;;;;;;8.77;1.80;;;25.70;68.00;;;;;;5057479;28;20036;-72
2023/07/10 11:39:11;;;;;;;9.52;1.63;;;25.70;69.10;;;;;;5074090;28;20519;-72
2023/07/10 11:41:52;;;;;;;15.65;2.45;;;26.00;68.70;;;;;;5057399;28;20048;-71
2023/07/10 11:44:38;;;;;;;5.60;1.55;;;26.40;64.60;;;;;;5074069;28;20044;-72
2023/07/10 11:47:07;;;;;;;6.80;1.67;;;26.70;67.30;;;;;;5074264;28;20052;-71
2023/07/10 11:49:55;;;;;;;6.82;1.98;;;27.00;64.70;;;;;;5073960;28;20076;-72
2023/07/10 11:52:21;;;;;;;10.07;2.13;;;27.00;64.20;;;;;;5074457;28;20067;-71
2023/07/10 11:54:49;;;;;;;8.75;1.80;;;27.20;64.90;;;;;;5057183;28;20428;-71
2023/07/10 11:57:27;;;;;;;9.77;1.92;;;27.20;64.40;;;;;;5073760;28;20051;-72
2023/07/10 12:00:23;;;;;;;9.07;1.83;;;27.40;64.70;;;;;;5055916;28;20126;-71
2023/07/10 12:02:52;;;;;;;8.75;1.80;;;27.60;63.30;;;;;;5073964;28;20055;-72
2023/07/10 12:05:22;;;;;;;9.02;1.90;;;27.70;63.20;;;;;;5073449;28;20397;-72
2023/07/10 12:07:54;;;;;;;9.48;1.50;;;27.90;62.30;;;;;;5073914;28;20054;-72
2023/07/10 12:10:22;;;;;;;6.93;1.73;;;28.20;62.40;;;;;;5073811;28;20055;-72
2023/07/10 12:12:51;;;;;;;8.43;2.55;;;28.30;62.10;;;;;;5057165;28;20036;-72
2023/07/10 12:15:18;;;;;;;8.05;1.60;;;28.40;61.40;;;;;;5073772;28;20040;-72
2023/07/10 12:17:44;;;;;;;14.43;2.13;;;28.40;60.30;;;;;;5056662;28;20033;-72
2023/07/10 12:20:24;;;;;;;7.05;1.88;;;28.50;60.10;;;;;;5056949;28;20083;-72
2023/07/10 12:22:52;;;;;;;8.43;1.73;;;28.60;60.00;;;;;;5073364;28;20040;-72
2023/07/10 12:25:18;;;;;;;8.50;1.58;;;28.50;60.60;;;;;;5073273;28;20044;-72
2023/07/10 12:27:44;;;;;;;5.53;1.30;;;28.50;59.80;;;;;;5073220;28;20040;-72
2023/07/10 12:30:16;;;;;;;11.88;1.70;;;28.40;59.10;;;;;;5073213;28;20044;-72
2023/07/10 12:32:43;;;;;;;5.85;1.50;;;28.30;57.80;;;;;;5073189;28;20409;-71
2023/07/10 12:35:34;;;;;;;12.13;1.80;;;28.10;59.60;;;;;;5073203;28;20069;-73
2023/07/10 12:38:01;;;;;;;6.68;1.58;;;28.20;59.00;;;;;;5073063;28;20040;-72
2023/07/10 12:40:30;;;;;;;6.47;1.70;;;28.30;58.60;;;;;;5073306;28;20049;-71
2023/07/10 12:43:27;;;;;;;8.68;1.85;;;28.10;58.30;;;;;;5073305;28;20062;-71
2023/07/10 12:45:59;;;;;;;10.27;1.65;;;28.20;59.60;;;;;;5073003;28;20076;-71
2023/07/10 12:48:29;;;;;;;4.82;1.20;;;28.30;58.70;;;;;;5072803;28;20112;-72
2023/07/10 12:50:58;;;;;;;6.05;1.50;;;28.30;57.50;;;;;;5056323;28;20037;-72
2023/07/10 12:53:29;;;;;;;4.25;1.55;;;28.30;57.60;;;;;;5073963;28;20036;-72
2023/07/10 12:56:06;;;;;;;6.03;1.17;;;28.30;57.10;;;;;;5072676;28;20052;-72